• Join FlightAware (Why Join?)
  • Login
  • US Flag 
07:45PM EST


 

Airport Tracker/Info


-or-


 

Live Flight TrackerFlight Track Log ✈ DAL3903 ✈ 12-Jul-2014 ✈ KMBS - KDTW

Flight Track Log - Related Links

Times and Time Zones

All times are in EDT time to prevent confusion due to time zone crossing. See the DAL3903 flight status page for this flight to view local times or setup timezone preferences in your user account.

Time Position Orientation Groundspeed Altitude Reporting Facility
EDT Latitude Longitude Course Direction KTS MPH feet Rate Location/Type
01:55PM 43.4153 -84.0614 163° South 224 258 5,400  Level Cleveland Center
01:56PM 43.3469 -84.0225 158° South 265 305 8,100 1,680 Climbing Cleveland Center
01:57PM 43.2708 -83.9794 158° South 288 331 8,900 180 Climbing Cleveland Center
01:58PM 43.1939 -83.9361 158° South 288 331 8,500 -540 Descending Cleveland Center
01:59PM 43.1338 -83.8566 161° South  Level Estimated
01:59PM 43.1181 -83.8931 157° South 284 327 7,800  Level Cleveland Center
02:00PM 43.0650 -83.8283 163° South  Level FlightAware Approximate
02:00PM 43.0414 -83.8497 158° South 285 328 7,100  Level Cleveland Center
02:00PM 42.9975 -83.8258 158° South 280 322 6,900 -420 Descending Cleveland Center
02:01PM 42.9553 -83.8022 158° South 260 299 6,600 -540 Descending Cleveland Center
02:02PM 42.8950 -83.7706 159° South 255 293 6,100 -360 Descending Cleveland Center
02:03PM 42.8356 -83.7347 156° South 253 291 6,000 -120 Descending Cleveland Center
02:03PM 42.8247 -83.7314 167° South 253 291 6,000  Level Cleveland Center
02:04PM 42.7644 -83.6922 154° Southeast 275 316 6,000  Level Cleveland Center
02:05PM 42.6964 -83.6314 147° Southeast 283 326 6,000  Level Cleveland Center
02:06PM 42.6422 -83.5767 143° Southeast 261 300 6,000  Level Cleveland Center
02:07PM 42.5786 -83.5078 141° Southeast 264 304 6,000  Level Cleveland Center
02:08PM 42.5203 -83.4486 143° Southeast 265 305 6,000 -540 Level Cleveland Center
02:09PM 42.4664 -83.3889 141° Southeast 265 305 4,900 -1,080 Descending Cleveland Center
02:10PM 42.4194 -83.3181 132° Southeast 233 268 3,800 -960 Descending Cleveland Center
02:11PM 42.3706 -83.3000 165° South 176 203 3,100 -660 Descending Cleveland Center
02:12PM 42.3200 -83.3042 183° South 150 173 2,400 -600 Descending Cleveland Center
02:13PM 42.2836 -83.3225 200° South 159 183 1,900 -540 Descending Cleveland Center
02:14PM 42.2517 -83.3481 211° Southwest 122 140 1,300 -540 Descending Cleveland Center
02:15PM 42.2200 -83.3719 209° Southwest 130 150 800 -480 Descending Cleveland Center
02:17PM 42.2124 -83.3534 154° Southeast  Level Estimated
02:24PM 42.2124 -83.3534 154° Southeast  Level Estimated